LZB450 LIRF-LBSF
Flight info
| Callsign | LZB450 |
|---|---|
| Flight time | 1h 22m |
| Altitude | 36000 |
| Route | OKUNO DCT XOLTA DCT RAMAP DCT NISVA |
| Aircraft | A320/M-SDE3FGHIRWY/LB1 |
Departure
| Time | 2026-05-05 17:31 |
|---|---|
| Airport | Rome–Fiumicino Leonardo da Vinci International Airport (LIRF) |
Arrival
| Time | 2026-05-05 18:54 |
|---|---|
| Airport | Sofia Airport (LBSF) |
| Time | Latitude | Longitude | Altitude | Speed | Heading |
|---|---|---|---|---|---|
| 2026-05-05 17:07 | 41.80195 | 12.26287 | 14 ft | 0 kts | 24° |
| 2026-05-05 17:13 | 41.80194 | 12.26286 | 14 ft | 2 kts | 24° |
| 2026-05-05 17:13 | 41.80172 | 12.26271 | 14 ft | 4 kts | 33° |
| 2026-05-05 17:13 | 41.80151 | 12.26249 | 17 ft | 4 kts | 53° |
| 2026-05-05 17:13 | 41.80142 | 12.26220 | 16 ft | 4 kts | 105° |
| 2026-05-05 17:14 | 41.80145 | 12.26208 | 17 ft | 1 kts | 115° |
| 2026-05-05 17:24 | 41.80133 | 12.26243 | 14 ft | 8 kts | 115° |
| 2026-05-05 17:24 | 41.80122 | 12.26315 | 14 ft | 8 kts | 77° |
| 2026-05-05 17:24 | 41.80157 | 12.26365 | 14 ft | 7 kts | 34° |
| 2026-05-05 17:24 | 41.80194 | 12.26393 | 14 ft | 6 kts | 26° |
| 2026-05-05 17:25 | 41.80234 | 12.26403 | 14 ft | 9 kts | 356° |
| 2026-05-05 17:25 | 41.80267 | 12.26380 | 14 ft | 8 kts | 317° |
| 2026-05-05 17:25 | 41.80299 | 12.26310 | 14 ft | 6 kts | 297° |
| 2026-05-05 17:25 | 41.80315 | 12.26267 | 14 ft | 4 kts | 295° |
| 2026-05-05 17:26 | 41.80327 | 12.26231 | 14 ft | 4 kts | 294° |
| 2026-05-05 17:26 | 41.80358 | 12.26182 | 15 ft | 8 kts | 322° |
| 2026-05-05 17:26 | 41.80400 | 12.26160 | 16 ft | 5 kts | 359° |
| 2026-05-05 17:26 | 41.80426 | 12.26165 | 16 ft | 4 kts | 9° |
| 2026-05-05 17:27 | 41.80464 | 12.26172 | 16 ft | 4 kts | 7° |
| 2026-05-05 17:27 | 41.80493 | 12.26183 | 18 ft | 7 kts | 24° |
| 2026-05-05 17:27 | 41.80535 | 12.26262 | 16 ft | 13 kts | 66° |
| 2026-05-05 17:27 | 41.80567 | 12.26380 | 16 ft | 14 kts | 71° |
| 2026-05-05 17:28 | 41.80603 | 12.26512 | 16 ft | 16 kts | 70° |
| 2026-05-05 17:28 | 41.80643 | 12.26659 | 16 ft | 18 kts | 69° |
| 2026-05-05 17:28 | 41.80688 | 12.26821 | 14 ft | 20 kts | 71° |
| 2026-05-05 17:28 | 41.80735 | 12.26989 | 14 ft | 14 kts | 57° |
| 2026-05-05 17:29 | 41.80814 | 12.27035 | 13 ft | 12 kts | 349° |
| 2026-05-05 17:29 | 41.80880 | 12.27006 | 13 ft | 0 kts | 339° |
| 2026-05-05 17:29 | 41.80881 | 12.27005 | 13 ft | 2 kts | 339° |
| 2026-05-05 17:30 | 41.80939 | 12.26962 | 14 ft | 15 kts | 311° |
| 2026-05-05 17:30 | 41.80925 | 12.26807 | 14 ft | 22 kts | 250° |
| 2026-05-05 17:30 | 41.80782 | 12.26309 | 19 ft | 99 kts | 251° |
| 2026-05-05 17:30 | 41.80454 | 12.25121 | 17 ft | 169 kts | 250° |
| 2026-05-05 17:31 | 41.80008 | 12.23436 | 319 ft | 203 kts | 246° |
| 2026-05-05 17:31 | 41.79499 | 12.21591 | 916 ft | 219 kts | 243° |
| 2026-05-05 17:31 | 41.78625 | 12.19901 | 1708 ft | 221 kts | 214° |
| 2026-05-05 17:31 | 41.77247 | 12.19038 | 2524 ft | 223 kts | 198° |
| 2026-05-05 17:32 | 41.75758 | 12.18256 | 3158 ft | 238 kts | 204° |
| 2026-05-05 17:32 | 41.74249 | 12.17274 | 3938 ft | 244 kts | 198° |
| 2026-05-05 17:32 | 41.72553 | 12.16905 | 4689 ft | 252 kts | 176° |
| 2026-05-05 17:32 | 41.70797 | 12.17171 | 5497 ft | 257 kts | 176° |
| 2026-05-05 17:33 | 41.68999 | 12.17293 | 6321 ft | 261 kts | 179° |
| 2026-05-05 17:33 | 41.67168 | 12.17334 | 7107 ft | 265 kts | 180° |
| 2026-05-05 17:33 | 41.65305 | 12.17357 | 7883 ft | 270 kts | 180° |
| 2026-05-05 17:33 | 41.63437 | 12.17393 | 8634 ft | 274 kts | 181° |
| 2026-05-05 17:34 | 41.61512 | 12.17450 | 9419 ft | 279 kts | 181° |
| 2026-05-05 17:34 | 41.59556 | 12.17522 | 10168 ft | 283 kts | 180° |
| 2026-05-05 17:34 | 41.57541 | 12.17624 | 10638 ft | 299 kts | 176° |
| 2026-05-05 17:34 | 41.55462 | 12.18304 | 11044 ft | 319 kts | 159° |
| 2026-05-05 17:35 | 41.53501 | 12.19849 | 11414 ft | 338 kts | 146° |
| 2026-05-05 17:35 | 41.51558 | 12.21753 | 11733 ft | 355 kts | 146° |
| 2026-05-05 17:35 | 41.49547 | 12.23753 | 12191 ft | 366 kts | 141° |
| 2026-05-05 17:35 | 41.47948 | 12.26422 | 12853 ft | 375 kts | 117° |
| 2026-05-05 17:36 | 41.47279 | 12.29788 | 13511 ft | 382 kts | 92° |
| 2026-05-05 17:36 | 41.47715 | 12.33275 | 14092 ft | 386 kts | 67° |
| 2026-05-05 17:36 | 41.49099 | 12.36354 | 14610 ft | 390 kts | 53° |
| 2026-05-05 17:36 | 41.50842 | 12.39149 | 15144 ft | 393 kts | 42° |
| 2026-05-05 17:37 | 41.52967 | 12.41449 | 15711 ft | 395 kts | 31° |
| 2026-05-05 17:37 | 41.54563 | 12.42715 | 16089 ft | 396 kts | 25° |
| 2026-05-05 17:37 | 41.57884 | 12.44769 | 16832 ft | 400 kts | 22° |
| 2026-05-05 17:37 | 41.60423 | 12.46334 | 17398 ft | 404 kts | 22° |
| 2026-05-05 17:38 | 41.62983 | 12.47926 | 17957 ft | 408 kts | 22° |
| 2026-05-05 17:38 | 41.65562 | 12.49534 | 18509 ft | 411 kts | 22° |
| 2026-05-05 17:38 | 41.68169 | 12.51158 | 19005 ft | 415 kts | 22° |
| 2026-05-05 17:38 | 41.70793 | 12.52786 | 19548 ft | 417 kts | 22° |
| 2026-05-05 17:39 | 41.73433 | 12.54422 | 20074 ft | 419 kts | 22° |
| 2026-05-05 17:39 | 41.76109 | 12.56080 | 20591 ft | 422 kts | 22° |
| 2026-05-05 17:39 | 41.78797 | 12.57751 | 21086 ft | 425 kts | 22° |
| 2026-05-05 17:39 | 41.81399 | 12.59660 | 21563 ft | 430 kts | 31° |
| 2026-05-05 17:40 | 41.83833 | 12.61943 | 22021 ft | 433 kts | 33° |
| 2026-05-05 17:40 | 41.86327 | 12.64298 | 22468 ft | 436 kts | 33° |
| 2026-05-05 17:40 | 41.88813 | 12.66641 | 22910 ft | 438 kts | 33° |
| 2026-05-05 17:40 | 41.91320 | 12.68997 | 23340 ft | 441 kts | 33° |
| 2026-05-05 17:41 | 41.93838 | 12.71359 | 23742 ft | 443 kts | 33° |
| 2026-05-05 17:41 | 41.96374 | 12.73742 | 24067 ft | 446 kts | 33° |
| 2026-05-05 17:41 | 41.98794 | 12.76024 | 24361 ft | 448 kts | 32° |
| 2026-05-05 17:41 | 42.01319 | 12.78507 | 24676 ft | 452 kts | 37° |
| 2026-05-05 17:42 | 42.03589 | 12.81467 | 24997 ft | 458 kts | 47° |
| 2026-05-05 17:42 | 42.05507 | 12.84913 | 25299 ft | 463 kts | 56° |
| 2026-05-05 17:42 | 42.07121 | 12.88683 | 25588 ft | 467 kts | 59° |
| 2026-05-05 17:42 | 42.08205 | 12.91261 | 25776 ft | 469 kts | 58° |
| 2026-05-05 17:43 | 42.09811 | 12.95091 | 26067 ft | 472 kts | 60° |
| 2026-05-05 17:43 | 42.11154 | 12.99155 | 26352 ft | 476 kts | 69° |
| 2026-05-05 17:43 | 42.12145 | 13.03412 | 26624 ft | 480 kts | 72° |
| 2026-05-05 17:43 | 42.13124 | 13.07743 | 26883 ft | 482 kts | 71° |
| 2026-05-05 17:44 | 42.14106 | 13.12072 | 27149 ft | 485 kts | 71° |
| 2026-05-05 17:44 | 42.15106 | 13.16470 | 27398 ft | 488 kts | 71° |
| 2026-05-05 17:44 | 42.16102 | 13.20848 | 27667 ft | 490 kts | 71° |
| 2026-05-05 17:44 | 42.17102 | 13.25251 | 27929 ft | 492 kts | 71° |
| 2026-05-05 17:45 | 42.18103 | 13.29679 | 28152 ft | 495 kts | 71° |
| 2026-05-05 17:45 | 42.19107 | 13.34125 | 28389 ft | 497 kts | 71° |
| 2026-05-05 17:45 | 42.20116 | 13.38592 | 28611 ft | 499 kts | 71° |
| 2026-05-05 17:45 | 42.21129 | 13.43080 | 28817 ft | 501 kts | 71° |
| 2026-05-05 17:46 | 42.22140 | 13.47577 | 29012 ft | 503 kts | 71° |
| 2026-05-05 17:46 | 42.23154 | 13.52106 | 29180 ft | 505 kts | 71° |
| 2026-05-05 17:46 | 42.24163 | 13.56639 | 29456 ft | 505 kts | 71° |
| 2026-05-05 17:46 | 42.25171 | 13.61173 | 29765 ft | 504 kts | 71° |
| 2026-05-05 17:47 | 42.26179 | 13.65709 | 30090 ft | 504 kts | 71° |
| 2026-05-05 17:47 | 42.27182 | 13.70231 | 30332 ft | 504 kts | 71° |
| 2026-05-05 17:47 | 42.28185 | 13.74759 | 30575 ft | 504 kts | 71° |
| 2026-05-05 17:47 | 42.29189 | 13.79295 | 30826 ft | 503 kts | 71° |
| 2026-05-05 17:48 | 42.30199 | 13.83879 | 31106 ft | 503 kts | 71° |
| 2026-05-05 17:48 | 42.31181 | 13.88358 | 31362 ft | 503 kts | 71° |
| 2026-05-05 17:48 | 42.32184 | 13.92945 | 31602 ft | 503 kts | 71° |
| 2026-05-05 17:48 | 42.33175 | 13.97481 | 31845 ft | 503 kts | 71° |
| 2026-05-05 17:49 | 42.34166 | 14.02008 | 32096 ft | 502 kts | 71° |
| 2026-05-05 17:49 | 42.35159 | 14.06541 | 32346 ft | 502 kts | 71° |
| 2026-05-05 17:49 | 42.36146 | 14.11071 | 32588 ft | 502 kts | 71° |
| 2026-05-05 17:49 | 42.37128 | 14.15599 | 32839 ft | 502 kts | 71° |
| 2026-05-05 17:50 | 42.38107 | 14.20131 | 33092 ft | 502 kts | 71° |
| 2026-05-05 17:50 | 42.39087 | 14.24652 | 33323 ft | 502 kts | 71° |
| 2026-05-05 17:50 | 42.40069 | 14.29187 | 33561 ft | 502 kts | 71° |
| 2026-05-05 17:50 | 42.41047 | 14.33716 | 33800 ft | 501 kts | 71° |
| 2026-05-05 17:51 | 42.42019 | 14.38239 | 34038 ft | 501 kts | 71° |
| 2026-05-05 17:51 | 42.42988 | 14.42776 | 34246 ft | 501 kts | 71° |
| 2026-05-05 17:51 | 42.43951 | 14.47304 | 34462 ft | 500 kts | 71° |
| 2026-05-05 17:51 | 42.44912 | 14.51827 | 34698 ft | 499 kts | 71° |
| 2026-05-05 17:52 | 42.45873 | 14.56332 | 34910 ft | 498 kts | 71° |
| 2026-05-05 17:52 | 42.46835 | 14.60835 | 35135 ft | 497 kts | 71° |
| 2026-05-05 17:52 | 42.47791 | 14.65324 | 35337 ft | 496 kts | 71° |
| 2026-05-05 17:52 | 42.48740 | 14.69808 | 35543 ft | 495 kts | 71° |
| 2026-05-05 17:53 | 42.49683 | 14.74284 | 35751 ft | 493 kts | 71° |
| 2026-05-05 17:53 | 42.50624 | 14.78751 | 35930 ft | 492 kts | 71° |
| 2026-05-05 17:53 | 42.51561 | 14.83213 | 36009 ft | 493 kts | 71° |
| 2026-05-05 17:54 | 42.53439 | 14.92164 | 36014 ft | 493 kts | 71° |
| 2026-05-05 17:54 | 42.55314 | 15.01126 | 36014 ft | 495 kts | 71° |
| 2026-05-05 17:55 | 42.57182 | 15.10111 | 36016 ft | 495 kts | 71° |
| 2026-05-05 17:55 | 42.59043 | 15.19101 | 36016 ft | 495 kts | 71° |
| 2026-05-05 17:56 | 42.60900 | 15.28092 | 36019 ft | 495 kts | 71° |
| 2026-05-05 17:56 | 42.62748 | 15.37085 | 36022 ft | 495 kts | 71° |
| 2026-05-05 17:57 | 42.64577 | 15.46088 | 36028 ft | 494 kts | 71° |
| 2026-05-05 17:57 | 42.66397 | 15.55094 | 36030 ft | 494 kts | 72° |
| 2026-05-05 17:58 | 42.68223 | 15.64088 | 36032 ft | 494 kts | 71° |
| 2026-05-05 17:58 | 42.70044 | 15.73072 | 36033 ft | 493 kts | 72° |
| 2026-05-05 17:59 | 42.71704 | 15.82122 | 36038 ft | 493 kts | 75° |
| 2026-05-05 17:59 | 42.73132 | 15.91249 | 36041 ft | 493 kts | 76° |
| 2026-05-05 18:00 | 42.74523 | 16.00380 | 36042 ft | 493 kts | 75° |
| 2026-05-05 18:00 | 42.75956 | 16.09483 | 36043 ft | 492 kts | 75° |
| 2026-05-05 18:01 | 42.77420 | 16.18569 | 36048 ft | 491 kts | 75° |
| 2026-05-05 18:01 | 42.78876 | 16.27654 | 36055 ft | 491 kts | 75° |
| 2026-05-05 18:02 | 42.80310 | 16.36737 | 36051 ft | 491 kts | 75° |
| 2026-05-05 18:02 | 42.81732 | 16.45825 | 36055 ft | 490 kts | 75° |
| 2026-05-05 18:03 | 42.83156 | 16.54964 | 36066 ft | 490 kts | 75° |
| 2026-05-05 18:03 | 42.84569 | 16.64045 | 36066 ft | 489 kts | 76° |
| 2026-05-05 18:04 | 42.85968 | 16.73109 | 36065 ft | 489 kts | 76° |
| 2026-05-05 18:04 | 42.87358 | 16.82170 | 36069 ft | 488 kts | 76° |
| 2026-05-05 18:05 | 42.88732 | 16.91233 | 36059 ft | 488 kts | 76° |
| 2026-05-05 18:05 | 42.90103 | 17.00280 | 36070 ft | 487 kts | 76° |
| 2026-05-05 18:06 | 42.91472 | 17.09335 | 36077 ft | 487 kts | 76° |
| 2026-05-05 18:06 | 42.92827 | 17.18380 | 36085 ft | 487 kts | 77° |
| 2026-05-05 18:07 | 42.94173 | 17.27424 | 36072 ft | 486 kts | 77° |
| 2026-05-05 18:07 | 42.95518 | 17.36467 | 36089 ft | 486 kts | 77° |
| 2026-05-05 18:08 | 42.96850 | 17.45509 | 36075 ft | 485 kts | 77° |
| 2026-05-05 18:08 | 42.98170 | 17.54540 | 36083 ft | 485 kts | 77° |
| 2026-05-05 18:09 | 42.99489 | 17.63579 | 36075 ft | 485 kts | 77° |
| 2026-05-05 18:09 | 43.00801 | 17.72610 | 36086 ft | 484 kts | 77° |
| 2026-05-05 18:10 | 43.02097 | 17.81633 | 36084 ft | 484 kts | 77° |
| 2026-05-05 18:10 | 43.03389 | 17.90664 | 36087 ft | 484 kts | 77° |
| 2026-05-05 18:11 | 43.04678 | 17.99691 | 36091 ft | 484 kts | 77° |
| 2026-05-05 18:11 | 43.05953 | 18.08715 | 36089 ft | 483 kts | 77° |
| 2026-05-05 18:12 | 43.07222 | 18.17746 | 36097 ft | 484 kts | 77° |
| 2026-05-05 18:12 | 43.08487 | 18.26780 | 36089 ft | 484 kts | 77° |
| 2026-05-05 18:13 | 43.09740 | 18.35818 | 36101 ft | 484 kts | 77° |
| 2026-05-05 18:13 | 43.10984 | 18.44873 | 36101 ft | 484 kts | 77° |
| 2026-05-05 18:14 | 43.12234 | 18.53935 | 36098 ft | 484 kts | 77° |
| 2026-05-05 18:14 | 43.13478 | 18.63059 | 36092 ft | 485 kts | 77° |
| 2026-05-05 18:15 | 43.14710 | 18.72128 | 36081 ft | 485 kts | 76° |
| 2026-05-05 18:15 | 43.15727 | 18.79681 | 36083 ft | 485 kts | 77° |
| 2026-05-05 18:16 | 43.16942 | 18.88769 | 36074 ft | 485 kts | 77° |
| 2026-05-05 18:16 | 43.18156 | 18.97864 | 36073 ft | 485 kts | 77° |
| 2026-05-05 18:17 | 43.19365 | 19.07024 | 36075 ft | 485 kts | 77° |
| 2026-05-05 18:17 | 43.20558 | 19.16118 | 36067 ft | 485 kts | 77° |
| 2026-05-05 18:18 | 43.21745 | 19.25213 | 36064 ft | 485 kts | 77° |
| 2026-05-05 18:18 | 43.22926 | 19.34303 | 36061 ft | 484 kts | 77° |
| 2026-05-05 18:19 | 43.24096 | 19.43378 | 36060 ft | 483 kts | 77° |
| 2026-05-05 18:19 | 43.25257 | 19.52466 | 36062 ft | 483 kts | 77° |
| 2026-05-05 18:20 | 43.26408 | 19.61517 | 36058 ft | 482 kts | 77° |
| 2026-05-05 18:20 | 43.27556 | 19.70570 | 36051 ft | 481 kts | 77° |
| 2026-05-05 18:21 | 43.28699 | 19.79609 | 36054 ft | 481 kts | 77° |
| 2026-05-05 18:21 | 43.29828 | 19.88640 | 36052 ft | 480 kts | 77° |
| 2026-05-05 18:22 | 43.30937 | 19.97664 | 36053 ft | 479 kts | 78° |
| 2026-05-05 18:22 | 43.32038 | 20.06658 | 36046 ft | 478 kts | 78° |
| 2026-05-05 18:23 | 43.33138 | 20.15639 | 36047 ft | 476 kts | 78° |
| 2026-05-05 18:23 | 43.34229 | 20.24607 | 36040 ft | 475 kts | 78° |
| 2026-05-05 18:24 | 43.35303 | 20.33547 | 36034 ft | 474 kts | 78° |
| 2026-05-05 18:24 | 43.36373 | 20.42482 | 36031 ft | 473 kts | 78° |
| 2026-05-05 18:25 | 43.37441 | 20.51411 | 36025 ft | 473 kts | 78° |
| 2026-05-05 18:25 | 43.38496 | 20.60326 | 36020 ft | 473 kts | 78° |
| 2026-05-05 18:26 | 43.39538 | 20.69245 | 36020 ft | 472 kts | 78° |
| 2026-05-05 18:26 | 43.40581 | 20.78223 | 36011 ft | 472 kts | 78° |
| 2026-05-05 18:27 | 43.41314 | 20.87204 | 36002 ft | 475 kts | 89° |
| 2026-05-05 18:27 | 43.40258 | 20.96171 | 35986 ft | 479 kts | 107° |
| 2026-05-05 18:28 | 43.37294 | 21.09290 | 35999 ft | 479 kts | 106° |
| 2026-05-05 18:28 | 43.35318 | 21.18036 | 35996 ft | 479 kts | 106° |
| 2026-05-05 18:29 | 43.33337 | 21.26775 | 35994 ft | 479 kts | 106° |
| 2026-05-05 18:29 | 43.31350 | 21.35506 | 35994 ft | 479 kts | 106° |
| 2026-05-05 18:30 | 43.29348 | 21.44234 | 35992 ft | 479 kts | 106° |
| 2026-05-05 18:30 | 43.27337 | 21.52945 | 35984 ft | 479 kts | 106° |
| 2026-05-05 18:31 | 43.25330 | 21.61649 | 35982 ft | 478 kts | 106° |
| 2026-05-05 18:31 | 43.23325 | 21.70340 | 35974 ft | 478 kts | 106° |
| 2026-05-05 18:32 | 43.21304 | 21.79033 | 35981 ft | 478 kts | 106° |
| 2026-05-05 18:32 | 43.19266 | 21.87713 | 36000 ft | 478 kts | 106° |
| 2026-05-05 18:33 | 43.17235 | 21.96376 | 35990 ft | 477 kts | 106° |
| 2026-05-05 18:33 | 43.15202 | 22.05024 | 35818 ft | 476 kts | 106° |
| 2026-05-05 18:34 | 43.14183 | 22.09342 | 35263 ft | 479 kts | 106° |
| 2026-05-05 18:34 | 43.13146 | 22.13735 | 34079 ft | 490 kts | 105° |
| 2026-05-05 18:34 | 43.12087 | 22.18204 | 32752 ft | 497 kts | 105° |
| 2026-05-05 18:34 | 43.11010 | 22.22728 | 31480 ft | 501 kts | 105° |
| 2026-05-05 18:35 | 43.09924 | 22.27283 | 30224 ft | 505 kts | 105° |
| 2026-05-05 18:35 | 43.08831 | 22.31861 | 28725 ft | 508 kts | 105° |
| 2026-05-05 18:35 | 43.07733 | 22.36456 | 27267 ft | 509 kts | 106° |
| 2026-05-05 18:35 | 43.06631 | 22.41049 | 25826 ft | 508 kts | 106° |
| 2026-05-05 18:36 | 43.05528 | 22.45638 | 24516 ft | 507 kts | 106° |
| 2026-05-05 18:36 | 43.04437 | 22.50168 | 23733 ft | 494 kts | 106° |
| 2026-05-05 18:36 | 43.03374 | 22.54583 | 22901 ft | 484 kts | 106° |
| 2026-05-05 18:36 | 43.02330 | 22.58914 | 22053 ft | 476 kts | 107° |
| 2026-05-05 18:37 | 43.01299 | 22.63178 | 21246 ft | 469 kts | 107° |
| 2026-05-05 18:37 | 43.00279 | 22.67381 | 20464 ft | 462 kts | 107° |
| 2026-05-05 18:37 | 42.99274 | 22.71519 | 19717 ft | 456 kts | 107° |
| 2026-05-05 18:37 | 42.98280 | 22.75605 | 18998 ft | 450 kts | 107° |
| 2026-05-05 18:38 | 42.97169 | 22.79577 | 18305 ft | 446 kts | 114° |
| 2026-05-05 18:38 | 42.95675 | 22.83260 | 17542 ft | 442 kts | 121° |
| 2026-05-05 18:38 | 42.94043 | 22.86773 | 16801 ft | 436 kts | 121° |
| 2026-05-05 18:38 | 42.92425 | 22.90251 | 16104 ft | 431 kts | 121° |
| 2026-05-05 18:39 | 42.90846 | 22.93693 | 15437 ft | 425 kts | 118° |
| 2026-05-05 18:39 | 42.89606 | 22.97312 | 14787 ft | 419 kts | 109° |
| 2026-05-05 18:39 | 42.88837 | 23.01108 | 14154 ft | 413 kts | 99° |
| 2026-05-05 18:39 | 42.88515 | 23.04964 | 13497 ft | 407 kts | 93° |
| 2026-05-05 18:40 | 42.88308 | 23.08796 | 12756 ft | 404 kts | 93° |
| 2026-05-05 18:40 | 42.88094 | 23.12602 | 11974 ft | 402 kts | 94° |
| 2026-05-05 18:40 | 42.87875 | 23.16396 | 11197 ft | 400 kts | 94° |
| 2026-05-05 18:40 | 42.87371 | 23.20099 | 10439 ft | 398 kts | 111° |
| 2026-05-05 18:41 | 42.85894 | 23.23241 | 9706 ft | 393 kts | 136° |
| 2026-05-05 18:41 | 42.83645 | 23.25260 | 8933 ft | 387 kts | 160° |
| 2026-05-05 18:41 | 42.81030 | 23.25834 | 8157 ft | 381 kts | 184° |
| 2026-05-05 18:41 | 42.78521 | 23.24877 | 7436 ft | 374 kts | 210° |
| 2026-05-05 18:42 | 42.76637 | 23.22561 | 7063 ft | 360 kts | 237° |
| 2026-05-05 18:42 | 42.75786 | 23.19502 | 6943 ft | 339 kts | 264° |
| 2026-05-05 18:42 | 42.76092 | 23.16475 | 7015 ft | 314 kts | 292° |
| 2026-05-05 18:42 | 42.76979 | 23.13869 | 7028 ft | 294 kts | 295° |
| 2026-05-05 18:43 | 42.77830 | 23.11440 | 6999 ft | 276 kts | 295° |
| 2026-05-05 18:43 | 42.78639 | 23.09132 | 6852 ft | 264 kts | 295° |
| 2026-05-05 18:43 | 42.79412 | 23.06932 | 6705 ft | 252 kts | 295° |
| 2026-05-05 18:43 | 42.80116 | 23.04807 | 6562 ft | 240 kts | 285° |
| 2026-05-05 18:44 | 42.80448 | 23.02634 | 6417 ft | 232 kts | 276° |
| 2026-05-05 18:44 | 42.80526 | 23.00432 | 6269 ft | 233 kts | 261° |
| 2026-05-05 18:44 | 42.79992 | 22.98379 | 6171 ft | 231 kts | 234° |
| 2026-05-05 18:44 | 42.78842 | 22.96894 | 6114 ft | 226 kts | 206° |
| 2026-05-05 18:45 | 42.77402 | 22.96305 | 6062 ft | 210 kts | 181° |
| 2026-05-05 18:45 | 42.76036 | 22.96584 | 6131 ft | 188 kts | 158° |
| 2026-05-05 18:45 | 42.74974 | 22.97439 | 6125 ft | 170 kts | 137° |
| 2026-05-05 18:45 | 42.74267 | 22.98629 | 6106 ft | 155 kts | 119° |
| 2026-05-05 18:46 | 42.73790 | 22.99964 | 6111 ft | 157 kts | 116° |
| 2026-05-05 18:46 | 42.73312 | 23.01305 | 6109 ft | 157 kts | 116° |
| 2026-05-05 18:46 | 42.72834 | 23.02643 | 6121 ft | 158 kts | 116° |
| 2026-05-05 18:46 | 42.72362 | 23.03967 | 6159 ft | 152 kts | 116° |
| 2026-05-05 18:47 | 42.71938 | 23.05280 | 6140 ft | 152 kts | 109° |
| 2026-05-05 18:47 | 42.71696 | 23.06672 | 6076 ft | 152 kts | 98° |
| 2026-05-05 18:47 | 42.71602 | 23.08096 | 5957 ft | 151 kts | 95° |
| 2026-05-05 18:47 | 42.71522 | 23.09514 | 5833 ft | 150 kts | 95° |
| 2026-05-05 18:48 | 42.71441 | 23.10925 | 5762 ft | 150 kts | 96° |
| 2026-05-05 18:48 | 42.71361 | 23.12325 | 5637 ft | 148 kts | 96° |
| 2026-05-05 18:48 | 42.71282 | 23.13718 | 5470 ft | 148 kts | 95° |
| 2026-05-05 18:48 | 42.71202 | 23.15108 | 5291 ft | 146 kts | 96° |
| 2026-05-05 18:49 | 42.71123 | 23.16482 | 5104 ft | 146 kts | 95° |
| 2026-05-05 18:49 | 42.71044 | 23.17853 | 4919 ft | 145 kts | 96° |
| 2026-05-05 18:49 | 42.70966 | 23.19216 | 4729 ft | 144 kts | 96° |
| 2026-05-05 18:49 | 42.70887 | 23.20575 | 4539 ft | 144 kts | 95° |
| 2026-05-05 18:50 | 42.70809 | 23.21930 | 4349 ft | 144 kts | 95° |
| 2026-05-05 18:50 | 42.70731 | 23.23275 | 4157 ft | 143 kts | 95° |
| 2026-05-05 18:50 | 42.70654 | 23.24605 | 3972 ft | 143 kts | 95° |
| 2026-05-05 18:50 | 42.70575 | 23.25951 | 3783 ft | 143 kts | 95° |
| 2026-05-05 18:51 | 42.70495 | 23.27318 | 3592 ft | 143 kts | 94° |
| 2026-05-05 18:51 | 42.70417 | 23.28661 | 3412 ft | 142 kts | 95° |
| 2026-05-05 18:51 | 42.70338 | 23.30007 | 3216 ft | 142 kts | 95° |
| 2026-05-05 18:51 | 42.70260 | 23.31331 | 3030 ft | 142 kts | 94° |
| 2026-05-05 18:52 | 42.70181 | 23.32686 | 2834 ft | 141 kts | 94° |
| 2026-05-05 18:52 | 42.70102 | 23.34015 | 2644 ft | 141 kts | 94° |
| 2026-05-05 18:52 | 42.70048 | 23.34896 | 2525 ft | 141 kts | 94° |
| 2026-05-05 18:52 | 42.69963 | 23.36211 | 2354 ft | 138 kts | 95° |
| 2026-05-05 18:53 | 42.69883 | 23.37510 | 2161 ft | 138 kts | 95° |
| 2026-05-05 18:53 | 42.69821 | 23.38813 | 1985 ft | 138 kts | 96° |
| 2026-05-05 18:53 | 42.69743 | 23.40110 | 1754 ft | 137 kts | 95° |
| 2026-05-05 18:53 | 42.69685 | 23.41129 | 1750 ft | 67 kts | 93° |
| 2026-05-05 18:54 | 42.69670 | 23.41418 | 1747 ft | 21 kts | 97° |
| 2026-05-05 18:54 | 42.69653 | 23.41683 | 1752 ft | 29 kts | 95° |
| 2026-05-05 18:54 | 42.69632 | 23.41965 | 1748 ft | 31 kts | 95° |
| 2026-05-05 18:54 | 42.69613 | 23.42256 | 1751 ft | 31 kts | 95° |
| 2026-05-05 18:55 | 42.69568 | 23.42548 | 1751 ft | 31 kts | 112° |
| 2026-05-05 18:55 | 42.69457 | 23.42748 | 1748 ft | 19 kts | 181° |
| 2026-05-05 18:55 | 42.69408 | 23.42635 | 1744 ft | 17 kts | 272° |
| 2026-05-05 18:55 | 42.69415 | 23.42488 | 1752 ft | 8 kts | 275° |
| 2026-05-05 18:56 | 42.69420 | 23.42414 | 1749 ft | 9 kts | 275° |
| 2026-05-05 18:56 | 42.69425 | 23.42320 | 1751 ft | 9 kts | 275° |
| 2026-05-05 18:56 | 42.69430 | 23.42236 | 1751 ft | 8 kts | 275° |
| 2026-05-05 18:56 | 42.69435 | 23.42160 | 1747 ft | 8 kts | 275° |
| 2026-05-05 18:57 | 42.69441 | 23.42053 | 1751 ft | 15 kts | 273° |
| 2026-05-05 18:57 | 42.69452 | 23.41868 | 1744 ft | 24 kts | 274° |
| 2026-05-05 18:57 | 42.69467 | 23.41644 | 1746 ft | 15 kts | 275° |
| 2026-05-05 18:57 | 42.69473 | 23.41510 | 1750 ft | 13 kts | 273° |
| 2026-05-05 18:58 | 42.69480 | 23.41392 | 1742 ft | 12 kts | 275° |
| 2026-05-05 18:58 | 42.69487 | 23.41285 | 1747 ft | 12 kts | 274° |
| 2026-05-05 18:58 | 42.69495 | 23.41130 | 1746 ft | 18 kts | 275° |
| 2026-05-05 18:58 | 42.69506 | 23.40945 | 1749 ft | 20 kts | 274° |
| 2026-05-05 18:59 | 42.69516 | 23.40765 | 1749 ft | 10 kts | 275° |
| 2026-05-05 18:59 | 42.69523 | 23.40636 | 1743 ft | 19 kts | 275° |
| 2026-05-05 18:59 | 42.69512 | 23.40498 | 1739 ft | 11 kts | 223° |
| 2026-05-05 18:59 | 42.69445 | 23.40459 | 1749 ft | 10 kts | 198° |
| 2026-05-05 19:00 | 42.69376 | 23.40430 | 1749 ft | 13 kts | 197° |
| 2026-05-05 19:00 | 42.69279 | 23.40390 | 1747 ft | 16 kts | 199° |
| 2026-05-05 19:00 | 42.69183 | 23.40345 | 1749 ft | 7 kts | 205° |
| 2026-05-05 19:00 | 42.69181 | 23.40344 | 1749 ft | 0 kts | 206° |
| 2026-05-05 19:01 | 42.69149 | 23.40365 | 1747 ft | 5 kts | 130° |
| 2026-05-05 19:01 | 42.69133 | 23.40413 | 1741 ft | 7 kts | 108° |
| 2026-05-05 19:01 | 42.69124 | 23.40453 | 1745 ft | 0 kts | 107° |
| 2026-05-05 19:02 | 42.69124 | 23.40454 | 1749 ft | 1 kts | 107° |
| 2026-05-05 19:02 | 42.69114 | 23.40481 | 1742 ft | 3 kts | 139° |
| 2026-05-05 19:02 | 42.69088 | 23.40483 | 1743 ft | 4 kts | 184° |
| 2026-05-05 19:03 | 42.69062 | 23.40475 | 1749 ft | 3 kts | 195° |
| 2026-05-05 19:03 | 42.69049 | 23.40470 | 1749 ft | 1 kts | 195° |
| 2026-05-05 19:03 | 42.69045 | 23.40469 | 1749 ft | 0 kts | 196° |
| 2026-05-05 19:03 | 42.69041 | 23.40467 | 1749 ft | 0 kts | 196° |